Time;durP1;ratioP1;P1;durP2;ratioP2;P2;SDS_P1;SDS_P2;PMS_P1;PMS_P2;Temp;Humidity;BMP_temperature;BMP_pressure;BME280_temperature;BME280_humidity;BME280_pressure;Samples;Min_cycle;Max_cycle;Signal;HPM_P1;HPM_P2
2023/12/25 00:01:52;;;;;;;8.20;1.83;;;;;;;10.93;100.00;99634.59;6250183;28;20057;-71
2023/12/25 00:04:54;;;;;;;9.70;1.67;;;;;;;10.93;100.00;99629.34;6249813;28;20053;-72
2023/12/25 00:07:56;;;;;;;8.57;2.30;;;;;;;10.94;100.00;99640.69;6250067;28;20049;-72
2023/12/25 00:10:58;;;;;;;10.80;1.63;;;;;;;10.98;100.00;99641.31;6250182;28;20056;-72
2023/12/25 00:13:59;;;;;;;8.48;1.77;;;;;;;11.00;100.00;99618.41;6249828;28;20049;-72
2023/12/25 00:17:00;;;;;;;12.10;2.75;;;;;;;10.95;100.00;99624.00;6250353;28;20464;-72
2023/12/25 00:20:03;;;;;;;8.40;1.85;;;;;;;10.96;100.00;99614.31;6285199;22;20367;-75
2023/12/25 00:23:06;;;;;;;15.13;1.95;;;;;;;10.96;100.00;99607.28;6269278;28;20049;-74
2023/12/25 00:26:09;;;;;;;7.55;1.80;;;;;;;11.01;100.00;99597.25;6249687;28;20056;-75
2023/12/25 00:29:10;;;;;;;12.43;1.63;;;;;;;10.99;100.00;99612.31;6260693;28;20076;-74
2023/12/25 00:32:11;;;;;;;9.57;2.15;;;;;;;11.01;100.00;99615.66;6249741;28;20049;-75
2023/12/25 00:35:13;;;;;;;7.18;1.70;;;;;;;11.02;100.00;99619.13;6247569;28;20052;-73
2023/12/25 00:38:15;;;;;;;4.53;1.02;;;;;;;11.00;100.00;99613.16;6264880;28;20052;-74
2023/12/25 00:41:16;;;;;;;5.40;1.80;;;;;;;10.93;100.00;99631.97;6278083;28;20052;-74
2023/12/25 00:44:18;;;;;;;10.05;1.48;;;;;;;10.93;100.00;99644.28;6270341;28;20056;-73
2023/12/25 00:47:19;;;;;;;13.27;1.38;;;;;;;10.91;100.00;99622.53;6278825;28;20588;-74
2023/12/25 00:50:20;;;;;;;5.38;1.33;;;;;;;10.82;100.00;99639.81;6269084;28;20056;-74
2023/12/25 00:53:23;;;;;;;1.90;1.38;;;;;;;10.77;100.00;99625.34;6278200;28;20052;-74
2023/12/25 00:56:25;;;;;;;14.00;3.10;;;;;;;10.79;100.00;99626.88;6278371;28;20049;-74
2023/12/25 00:59:26;;;;;;;13.70;3.38;;;;;;;10.74;100.00;99610.63;6279157;28;20349;-75
2023/12/25 01:02:27;;;;;;;7.85;1.25;;;;;;;10.71;100.00;99631.84;6278448;28;20052;-74
2023/12/25 01:05:29;;;;;;;9.77;1.30;;;;;;;10.73;100.00;99627.34;6278235;28;20440;-73
2023/12/25 01:08:31;;;;;;;3.80;0.80;;;;;;;10.71;100.00;99647.63;6278100;28;20060;-73
2023/12/25 01:11:33;;;;;;;2.85;0.88;;;;;;;10.66;100.00;99652.34;6278670;28;20045;-73
2023/12/25 01:14:34;;;;;;;5.75;1.00;;;;;;;10.66;100.00;99647.09;6277925;28;20357;-73
2023/12/25 01:17:35;;;;;;;1.33;0.75;;;;;;;10.60;100.00;99640.50;6278597;28;20049;-74
2023/12/25 01:20:37;;;;;;;5.80;1.67;;;;;;;10.61;100.00;99634.28;6278241;28;20568;-74
2023/12/25 01:23:39;;;;;;;9.35;1.23;;;;;;;10.56;100.00;99636.41;6277947;28;20048;-74
2023/12/25 01:26:40;;;;;;;4.35;1.70;;;;;;;10.59;100.00;99636.22;6277823;28;20452;-73
2023/12/25 01:29:42;;;;;;;7.00;1.40;;;;;;;10.62;100.00;99654.34;6278006;28;20056;-73
2023/12/25 01:32:43;;;;;;;5.53;1.23;;;;;;;10.61;100.00;99659.72;6277680;28;20076;-73
2023/12/25 01:35:44;;;;;;;4.70;1.08;;;;;;;10.57;100.00;99655.63;6277509;28;20056;-73
2023/12/25 01:38:47;;;;;;;9.55;1.30;;;;;;;10.59;100.00;99657.22;6277700;28;20049;-73
2023/12/25 01:41:48;;;;;;;8.32;1.35;;;;;;;10.54;100.00;99661.97;6277407;28;20057;-74
2023/12/25 01:44:50;;;;;;;2.92;1.02;;;;;;;10.55;100.00;99668.06;6277456;28;20049;-73
2023/12/25 01:47:51;;;;;;;3.67;1.15;;;;;;;10.50;100.00;99668.38;6277522;28;20049;-74
2023/12/25 01:50:56;;;;;;;4.50;1.27;;;;;;;10.49;100.00;99658.84;6277060;28;20361;-74
2023/12/25 01:54:01;;;;;;;4.68;1.25;;;;;;;10.50;100.00;99673.63;6277211;28;20354;-72
2023/12/25 01:57:03;;;;;;;7.43;1.95;;;;;;;10.52;100.00;99682.22;6277437;28;20076;-72
2023/12/25 02:00:06;;;;;;;10.30;1.52;;;;;;;10.46;100.00;99685.31;6277464;28;20049;-73
2023/12/25 02:03:07;;;;;;;6.50;1.40;;;;;;;10.41;100.00;99679.53;6276969;28;20048;-73
2023/12/25 02:06:09;;;;;;;6.70;1.65;;;;;;;10.37;100.00;99685.94;6276719;28;20059;-74
2023/12/25 02:09:13;;;;;;;5.93;1.20;;;;;;;10.31;100.00;99692.47;6276988;28;20052;-73
2023/12/25 02:12:14;;;;;;;4.68;1.08;;;;;;;10.31;100.00;99683.72;6277129;28;20049;-73
2023/12/25 02:15:16;;;;;;;2.60;1.15;;;;;;;10.27;100.00;99682.28;6276473;28;20072;-73
2023/12/25 02:18:17;;;;;;;2.85;1.20;;;;;;;10.30;100.00;99688.13;6276962;28;20060;-74
2023/12/25 02:21:19;;;;;;;5.18;1.30;;;;;;;10.31;100.00;99705.59;6276946;28;20460;-72
2023/12/25 02:24:28;;;;;;;9.32;1.48;;;;;;;10.35;100.00;99695.69;6276384;28;20045;-73
2023/12/25 02:27:30;;;;;;;2.67;1.10;;;;;;;10.31;100.00;99702.97;6276783;28;20349;-75
2023/12/25 02:30:32;;;;;;;7.78;1.25;;;;;;;10.42;100.00;99710.09;6276832;28;20053;-75
2023/12/25 02:33:33;;;;;;;6.47;1.27;;;;;;;10.55;100.00;99716.19;6276410;28;20045;-74
2023/12/25 02:36:34;;;;;;;3.60;1.20;;;;;;;10.54;100.00;99713.66;6265575;28;20045;-74
2023/12/25 02:39:36;;;;;;;4.53;1.20;;;;;;;10.49;100.00;99714.00;6268180;28;20064;-74
2023/12/25 02:42:38;;;;;;;6.60;1.25;;;;;;;10.48;100.00;99696.53;6266616;28;20072;-74
2023/12/25 02:45:40;;;;;;;6.30;1.23;;;;;;;10.47;100.00;99717.66;6269379;28;20464;-74
2023/12/25 02:48:41;;;;;;;4.07;1.13;;;;;;;10.52;100.00;99721.63;6276099;28;20056;-74
2023/12/25 02:51:42;;;;;;;12.63;2.25;;;;;;;10.53;100.00;99732.97;6262919;28;20358;-74
2023/12/25 02:54:44;;;;;;;3.22;1.00;;;;;;;10.60;100.00;99740.34;6275560;28;20052;-72
2023/12/25 02:57:46;;;;;;;9.07;1.17;;;;;;;10.72;100.00;99727.28;6276410;28;20055;-73
2023/12/25 03:00:48;;;;;;;2.38;0.93;;;;;;;10.76;100.00;99734.84;6275955;28;20052;-74
2023/12/25 03:03:49;;;;;;;5.05;1.17;;;;;;;10.77;100.00;99722.56;6275561;28;20330;-74
2023/12/25 03:06:50;;;;;;;4.05;0.65;;;;;;;10.81;100.00;99724.88;6275309;28;20060;-74
2023/12/25 03:09:52;;;;;;;2.78;0.70;;;;;;;10.84;100.00;99700.97;6276025;28;20053;-75
2023/12/25 03:12:54;;;;;;;9.27;1.25;;;;;;;10.91;100.00;99732.94;6275726;28;20056;-74
2023/12/25 03:15:56;;;;;;;5.55;0.90;;;;;;;10.92;100.00;99716.22;6274806;28;20049;-74
2023/12/25 03:18:57;;;;;;;6.25;1.33;;;;;;;10.86;100.00;99724.53;6275559;28;20048;-73
2023/12/25 03:21:58;;;;;;;7.10;1.08;;;;;;;10.89;100.00;99727.78;6275321;28;20085;-73
2023/12/25 03:25:00;;;;;;;4.07;0.70;;;;;;;10.82;100.00;99731.81;6275283;28;20433;-74
2023/12/25 03:28:03;;;;;;;4.05;0.85;;;;;;;10.85;100.00;99744.69;6275431;28;20126;-73
2023/12/25 03:31:05;;;;;;;5.60;0.65;;;;;;;10.84;100.00;99742.19;6275594;28;20048;-74
2023/12/25 03:34:06;;;;;;;3.17;0.70;;;;;;;10.90;100.00;99741.75;6274526;28;20045;-74
2023/12/25 03:37:07;;;;;;;4.65;0.70;;;;;;;10.80;100.00;99744.19;6275169;28;20107;-74
2023/12/25 03:40:09;;;;;;;6.97;0.68;;;;;;;10.81;100.00;99759.03;6275359;28;20049;-74
2023/12/25 03:43:12;;;;;;;2.38;0.73;;;;;;;10.91;100.00;99741.66;6274931;28;20056;-75
2023/12/25 03:46:13;;;;;;;1.95;0.77;;;;;;;11.00;100.00;99741.97;6263635;28;20354;-73
2023/12/25 03:49:15;;;;;;;3.38;0.70;;;;;;;10.98;100.00;99746.47;6246883;28;20051;-73
2023/12/25 03:52:16;;;;;;;4.65;0.65;;;;;;;10.93;100.00;99763.41;6225587;28;20370;-73
2023/12/25 03:55:17;;;;;;;5.00;1.10;;;;;;;10.92;100.00;99759.09;6225274;28;20046;-73
2023/12/25 03:58:20;;;;;;;3.08;0.95;;;;;;;11.00;100.00;99787.50;6225901;28;20054;-75
2023/12/25 04:01:22;;;;;;;4.18;1.17;;;;;;;11.08;100.00;99768.53;6234113;28;20052;-73
2023/12/25 04:04:23;;;;;;;6.85;1.40;;;;;;;11.01;100.00;99759.41;6248946;28;20102;-73
2023/12/25 04:07:24;;;;;;;0.95;0.70;;;;;;;10.86;100.00;99788.47;6225302;28;20389;-75
2023/12/25 04:10:26;;;;;;;5.28;1.05;;;;;;;11.04;100.00;99788.13;6225634;28;20061;-74
2023/12/25 04:13:28;;;;;;;3.97;1.17;;;;;;;11.05;100.00;99771.41;6226386;28;20050;-74
2023/12/25 04:16:30;;;;;;;4.82;0.82;;;;;;;11.07;100.00;99775.56;6239702;28;20049;-73
2023/12/25 04:19:31;;;;;;;3.58;1.02;;;;;;;11.10;100.00;99790.31;6254728;28;20065;-73
2023/12/25 04:22:32;;;;;;;3.17;0.73;;;;;;;11.03;100.00;99792.50;6254771;28;20393;-74
2023/12/25 04:25:33;;;;;;;6.03;0.68;;;;;;;10.97;100.00;99781.59;6254350;28;20053;-74
2023/12/25 04:28:36;;;;;;;3.63;0.82;;;;;;;10.90;100.00;99782.03;6251185;28;20492;-74
2023/12/25 04:31:37;;;;;;;8.65;0.90;;;;;;;10.88;100.00;99780.47;6240321;28;20057;-72
2023/12/25 04:34:39;;;;;;;9.15;1.35;;;;;;;10.98;100.00;99791.16;6254124;28;20369;-75
2023/12/25 04:37:40;;;;;;;12.05;1.10;;;;;;;10.99;100.00;99796.34;6261881;28;20052;-74
2023/12/25 04:40:41;;;;;;;3.22;0.52;;;;;;;10.96;100.00;99790.44;6269988;28;20342;-73
2023/12/25 04:43:45;;;;;;;7.43;1.00;;;;;;;10.97;100.00;99789.50;6272491;28;20040;-73
2023/12/25 04:46:46;;;;;;;3.28;0.70;;;;;;;10.98;100.00;99799.88;6242608;28;20516;-73
2023/12/25 04:49:47;;;;;;;3.42;0.75;;;;;;;11.05;100.00;99800.31;6270706;28;20048;-73
2023/12/25 04:52:48;;;;;;;6.50;0.63;;;;;;;11.02;100.00;99797.88;6278681;28;20349;-73
2023/12/25 04:55:50;;;;;;;2.70;0.98;;;;;;;11.02;100.00;99801.34;6259803;28;20053;-74
2023/12/25 04:58:52;;;;;;;4.80;0.82;;;;;;;11.02;100.00;99816.28;6229422;28;20054;-74
2023/12/25 05:01:54;;;;;;;3.95;0.73;;;;;;;11.11;100.00;99805.13;6229171;28;20061;-73
2023/12/25 05:04:56;;;;;;;3.50;0.65;;;;;;;11.15;100.00;99811.84;6228885;28;20045;-74
2023/12/25 05:07:57;;;;;;;0.57;0.45;;;;;;;11.09;100.00;99815.75;6228699;28;20053;-74
2023/12/25 05:10:58;;;;;;;4.93;0.93;;;;;;;11.05;100.00;99835.34;6229105;28;20046;-74
2023/12/25 05:14:01;;;;;;;5.07;0.77;;;;;;;11.05;100.00;99837.97;6228475;28;20366;-73
2023/12/25 05:17:02;;;;;;;1.88;0.55;;;;;;;11.07;100.00;99824.69;6232307;28;20050;-73
2023/12/25 05:20:05;;;;;;;3.22;1.30;;;;;;;11.06;100.00;99842.25;6252956;28;20048;-74
2023/12/25 05:23:06;;;;;;;3.03;0.40;;;;;;;11.10;100.00;99829.75;6252845;28;20049;-75
2023/12/25 05:26:07;;;;;;;2.63;0.60;;;;;;;11.01;100.00;99839.13;6246957;28;20323;-74
2023/12/25 05:29:10;;;;;;;7.90;0.82;;;;;;;11.01;100.00;99843.53;6258559;28;20052;-74
2023/12/25 05:32:11;;;;;;;8.27;1.10;;;;;;;11.04;100.00;99845.97;6268897;28;20061;-75
2023/12/25 05:35:13;;;;;;;1.45;0.60;;;;;;;11.03;100.00;99834.59;6257940;28;20053;-74
2023/12/25 05:38:14;;;;;;;4.97;1.00;;;;;;;10.88;100.00;99841.75;6252765;28;20136;-74
2023/12/25 05:41:15;;;;;;;2.80;0.60;;;;;;;10.73;100.00;99895.38;6253409;28;20041;-73
2023/12/25 05:44:18;;;;;;;4.15;0.50;;;;;;;10.72;100.00;99858.66;6251143;28;20056;-73
2023/12/25 05:47:19;;;;;;;5.35;1.27;;;;;;;10.55;100.00;99850.16;6252520;28;20053;-74
2023/12/25 05:50:21;;;;;;;4.72;0.77;;;;;;;10.45;100.00;99858.78;6252426;28;20442;-73
2023/12/25 05:53:24;;;;;;;2.50;1.02;;;;;;;10.43;100.00;99860.66;6252532;28;20354;-73
2023/12/25 05:56:26;;;;;;;4.20;0.52;;;;;;;10.42;100.00;99865.06;6252285;28;20046;-74
2023/12/25 05:59:28;;;;;;;4.70;0.88;;;;;;;10.46;100.00;99858.66;6252503;28;20072;-74
2023/12/25 06:02:30;;;;;;;5.78;1.30;;;;;;;10.46;100.00;99876.22;6252373;28;20057;-74
2023/12/25 06:05:31;;;;;;;0.77;0.40;;;;;;;10.38;100.00;99866.22;6252035;28;20042;-73
2023/12/25 06:08:33;;;;;;;4.82;0.98;;;;;;;10.23;100.00;99868.03;6252232;28;20049;-73
2023/12/25 06:11:35;;;;;;;4.10;0.63;;;;;;;10.13;100.00;99865.19;6252105;28;20052;-73
2023/12/25 06:14:38;;;;;;;5.43;1.10;;;;;;;10.12;100.00;99873.97;6251910;28;20045;-75
2023/12/25 06:17:39;;;;;;;3.15;0.85;;;;;;;10.02;100.00;99875.53;6252015;28;20060;-73
2023/12/25 06:20:41;;;;;;;3.70;0.55;;;;;;;9.97;100.00;99884.66;6273562;22;20418;-69
2023/12/25 06:23:43;;;;;;;0.70;0.30;;;;;;;9.98;100.00;99892.41;6252083;28;20422;-70
2023/12/25 06:26:45;;;;;;;2.45;0.73;;;;;;;9.96;100.00;99901.34;6251644;28;20434;-71
2023/12/25 06:29:47;;;;;;;4.55;0.80;;;;;;;9.95;100.00;99900.50;6251743;28;20061;-70
2023/12/25 06:32:49;;;;;;;2.95;0.77;;;;;;;9.95;100.00;99908.38;6251688;28;20061;-71
2023/12/25 06:35:50;;;;;;;3.17;0.70;;;;;;;9.98;100.00;99916.03;6250389;28;20046;-71
2023/12/25 06:38:51;;;;;;;1.85;0.60;;;;;;;9.88;100.00;99905.28;6262205;28;20434;-71
2023/12/25 06:41:53;;;;;;;2.78;0.55;;;;;;;9.92;100.00;99919.06;6269530;28;20057;-72
2023/12/25 06:44:55;;;;;;;5.40;0.70;;;;;;;9.68;100.00;99918.84;6270616;28;20351;-71
2023/12/25 06:47:57;;;;;;;2.72;0.73;;;;;;;9.54;100.00;99922.34;6276205;28;20064;-71
2023/12/25 06:50:58;;;;;;;3.70;0.68;;;;;;;9.45;100.00;99930.78;6264633;28;20064;-71
2023/12/25 06:53:59;;;;;;;3.00;1.98;;;;;;;9.36;100.00;99920.84;6250861;28;20438;-71
2023/12/25 06:57:01;;;;;;;2.13;0.77;;;;;;;9.35;100.00;99943.56;6251056;28;20056;-71
2023/12/25 07:00:04;;;;;;;3.90;0.77;;;;;;;9.32;100.00;99948.19;6263360;28;20045;-71
2023/12/25 07:03:06;;;;;;;3.20;1.20;;;;;;;9.26;100.00;99945.91;6257730;28;20045;-72
2023/12/25 07:06:08;;;;;;;2.55;1.33;;;;;;;9.20;100.00;99941.06;6256337;28;20053;-71
2023/12/25 07:09:13;;;;;;;1.83;0.70;;;;;;;9.14;100.00;99944.91;6250018;28;20055;-71
2023/12/25 07:12:15;;;;;;;2.13;0.75;;;;;;;9.18;100.00;99974.41;6265134;28;20052;-71
2023/12/25 07:15:18;;;;;;;3.35;0.63;;;;;;;9.24;100.00;99956.50;6268679;28;20041;-71
2023/12/25 07:18:19;;;;;;;7.05;0.77;;;;;;;9.25;100.00;99967.84;6267469;28;20133;-71
2023/12/25 07:21:21;;;;;;;6.75;0.65;;;;;;;9.33;100.00;99962.97;6275382;28;20055;-71
2023/12/25 07:24:22;;;;;;;5.25;0.70;;;;;;;9.39;100.00;99963.44;6263668;28;20053;-72
2023/12/25 07:27:23;;;;;;;1.35;0.82;;;;;;;9.41;100.00;99976.47;6256086;28;20068;-71
2023/12/25 07:30:26;;;;;;;4.80;0.70;;;;;;;9.50;100.00;99978.53;6256578;28;20049;-72
2023/12/25 07:33:27;;;;;;;3.50;0.57;;;;;;;9.49;100.00;99976.81;6248707;28;20052;-71
2023/12/25 07:36:29;;;;;;;6.25;0.85;;;;;;;9.58;100.00;99975.41;6254925;28;20057;-71
2023/12/25 07:39:30;;;;;;;3.67;0.85;;;;;;;9.57;100.00;99971.13;6261299;28;20057;-71
2023/12/25 07:42:32;;;;;;;0.70;0.50;;;;;;;9.62;100.00;99987.41;6249310;28;20098;-71
2023/12/25 07:45:34;;;;;;;5.40;0.73;;;;;;;9.67;100.00;100001.09;6258430;28;20560;-72
2023/12/25 07:48:36;;;;;;;1.30;0.63;;;;;;;9.73;100.00;100002.50;6250724;28;20057;-71
2023/12/25 07:51:37;;;;;;;1.42;0.60;;;;;;;9.68;100.00;100007.19;6266034;28;20053;-71
2023/12/25 07:54:39;;;;;;;3.95;0.80;;;;;;;9.71;100.00;100004.38;6256823;28;20045;-71
2023/12/25 07:57:40;;;;;;;3.42;0.90;;;;;;;9.70;100.00;100015.81;6258237;28;20057;-71
2023/12/25 08:00:43;;;;;;;2.50;0.82;;;;;;;9.67;100.00;100003.72;6256790;28;20049;-71
2023/12/25 08:03:44;;;;;;;4.88;0.65;;;;;;;9.64;100.00;100007.38;6252903;28;20353;-71
2023/12/25 08:06:46;;;;;;;3.83;1.90;;;;;;;9.69;100.00;100020.22;6262229;28;20042;-71
2023/12/25 08:09:48;;;;;;;4.85;0.90;;;;;;;9.72;100.00;100024.41;6249892;28;20060;-71
2023/12/25 08:12:49;;;;;;;1.17;0.50;;;;;;;9.81;100.00;100036.97;6249625;28;20049;-71
2023/12/25 08:15:52;;;;;;;4.32;0.60;;;;;;;9.87;100.00;100037.44;6245956;28;20053;-71
2023/12/25 08:18:53;;;;;;;1.77;0.50;;;;;;;9.90;100.00;100028.53;6262952;28;20441;-71
2023/12/25 08:21:54;;;;;;;7.03;1.00;;;;;;;9.96;100.00;100040.44;6256595;28;20057;-70
2023/12/25 08:24:56;;;;;;;3.33;0.80;;;;;;;10.10;100.00;100050.94;6257361;28;20068;-71
2023/12/25 08:27:57;;;;;;;3.53;0.70;;;;;;;10.16;100.00;100048.75;6266373;28;20445;-70
2023/12/25 08:31:00;;;;;;;7.88;1.67;;;;;;;10.06;100.00;100044.19;6264267;28;20048;-70
2023/12/25 08:34:03;;;;;;;3.05;0.60;;;;;;;10.11;100.00;100042.94;6269438;28;20045;-70
2023/12/25 08:37:04;;;;;;;2.45;0.70;;;;;;;10.14;100.00;100041.94;6265774;28;20052;-70
2023/12/25 08:40:07;;;;;;;2.65;1.02;;;;;;;10.14;100.00;100047.19;6261800;28;20392;-71
2023/12/25 08:43:08;;;;;;;5.80;0.77;;;;;;;10.24;100.00;100055.31;6270699;28;20049;-71
2023/12/25 08:46:11;;;;;;;6.25;0.80;;;;;;;10.22;100.00;100052.78;6263262;28;20422;-71
2023/12/25 08:49:13;;;;;;;4.65;1.85;;;;;;;10.24;100.00;100071.06;6274363;28;20045;-71
2023/12/25 08:52:15;;;;;;;2.60;0.70;;;;;;;10.28;100.00;100078.69;6270963;28;20465;-72
2023/12/25 08:55:16;;;;;;;5.88;0.60;;;;;;;10.26;100.00;100083.19;6247630;28;20418;-71
2023/12/25 08:58:17;;;;;;;1.25;0.57;;;;;;;10.26;100.00;100080.56;6247310;28;20859;-72
2023/12/25 09:01:22;;;;;;;7.25;1.17;;;;;;;10.23;100.00;100078.09;6255816;28;20870;-72
2023/12/25 09:04:24;;;;;;;2.50;0.98;;;;;;;10.29;100.00;100098.75;6260059;28;20049;-70
2023/12/25 09:07:25;;;;;;;4.15;0.82;;;;;;;10.41;100.00;100087.50;6252086;28;20049;-71
2023/12/25 09:10:26;;;;;;;4.15;1.02;;;;;;;10.38;100.00;100092.09;6252257;28;20056;-71
2023/12/25 09:13:28;;;;;;;11.65;1.65;;;;;;;10.36;100.00;100100.06;6252085;28;20045;-71
2023/12/25 09:16:30;;;;;;;6.90;1.13;;;;;;;10.39;100.00;100093.75;6250732;28;20048;-71
2023/12/25 09:19:32;;;;;;;5.00;0.85;;;;;;;10.43;100.00;100105.75;6258507;28;20053;-71
2023/12/25 09:22:33;;;;;;;2.20;0.52;;;;;;;10.38;100.00;100111.31;6265432;28;20056;-71
2023/12/25 09:25:34;;;;;;;4.35;0.57;;;;;;;10.46;100.00;100123.13;6253133;28;20045;-72
2023/12/25 09:28:36;;;;;;;1.75;0.60;;;;;;;10.44;100.00;100117.94;6250562;28;20049;-72
2023/12/25 09:31:38;;;;;;;4.00;0.75;;;;;;;10.53;100.00;100122.63;6261802;28;20042;-71
2023/12/25 09:34:40;;;;;;;2.95;0.65;;;;;;;10.45;100.00;100122.28;6258128;28;20060;-72
2023/12/25 09:37:41;;;;;;;3.60;0.68;;;;;;;10.50;100.00;100122.00;6268546;28;20053;-72
2023/12/25 09:40:43;;;;;;;4.43;1.15;;;;;;;10.48;100.00;100119.44;6270406;28;20060;-72
2023/12/25 09:43:45;;;;;;;5.43;0.98;;;;;;;10.58;100.00;100133.72;6254199;28;20057;-72
2023/12/25 09:46:48;;;;;;;3.70;0.75;;;;;;;10.60;100.00;100137.06;6267644;28;20045;-71
2023/12/25 09:49:51;;;;;;;3.78;0.95;;;;;;;10.62;100.00;100139.59;6266324;28;20057;-71
2023/12/25 09:52:52;;;;;;;6.60;0.80;;;;;;;10.58;100.00;100130.22;6271448;28;20057;-70
2023/12/25 09:55:54;;;;;;;2.47;0.63;;;;;;;10.65;100.00;100136.78;6276846;28;20045;-70
2023/12/25 09:58:57;;;;;;;10.45;2.08;;;;;;;10.59;100.00;100139.81;6266945;28;20053;-69
2023/12/25 10:02:04;;;;;;;1.98;0.93;;;;;;;10.62;100.00;100131.72;6277003;28;20062;-70
2023/12/25 10:05:07;;;;;;;1.45;0.60;;;;;;;10.54;100.00;100157.66;6277031;28;20059;-69
2023/12/25 10:08:08;;;;;;;4.63;0.85;;;;;;;10.65;100.00;100157.81;6277447;28;20055;-72
2023/12/25 10:11:13;;;;;;;5.20;1.00;;;;;;;10.68;100.00;100155.00;6276705;28;20053;-71
2023/12/25 10:14:14;;;;;;;2.08;0.73;;;;;;;10.66;100.00;100160.31;6276314;28;20162;-70
2023/12/25 10:17:18;;;;;;;4.15;1.02;;;;;;;10.58;100.00;100167.88;6276899;28;20041;-70
2023/12/25 10:20:19;;;;;;;2.78;0.77;;;;;;;10.74;100.00;100156.38;6276797;28;20056;-70
2023/12/25 10:23:28;;;;;;;0.95;0.63;;;;;;;10.51;100.00;100148.16;6276971;28;20203;-70
2023/12/25 10:26:29;;;;;;;5.37;1.67;;;;;;;10.64;100.00;100158.75;6276381;28;20357;-70
2023/12/25 10:29:35;;;;;;;6.38;0.68;;;;;;;10.65;100.00;100168.31;6276972;28;20052;-70
2023/12/25 10:32:39;;;;;;;3.78;1.00;;;;;;;10.71;100.00;100173.19;6276552;28;20069;-70
2023/12/25 10:35:41;;;;;;;7.72;0.93;;;;;;;10.64;100.00;100166.63;6276088;28;20053;-71
2023/12/25 10:38:44;;;;;;;3.22;0.80;;;;;;;10.69;100.00;100161.94;6274227;28;20053;-70
2023/12/25 10:41:47;;;;;;;2.35;0.77;;;;;;;10.71;100.00;100161.81;6257414;28;20049;-70
2023/12/25 10:44:49;;;;;;;5.60;0.80;;;;;;;10.76;100.00;100163.22;6259881;28;20053;-71
2023/12/25 10:47:54;;;;;;;3.20;0.90;;;;;;;10.84;100.00;100168.84;6267934;28;20048;-71
2023/12/25 10:50:57;;;;;;;5.50;0.60;;;;;;;10.84;100.00;100179.34;6276169;28;20052;-70
2023/12/25 10:54:00;;;;;;;2.28;0.75;;;;;;;10.88;100.00;100180.84;6259454;28;20464;-73
2023/12/25 10:57:03;;;;;;;9.65;0.70;;;;;;;10.80;100.00;100171.75;6264266;28;20045;-73
2023/12/25 11:00:10;;;;;;;4.55;1.10;;;;;;;10.73;100.00;100168.69;6264353;28;20175;-73
2023/12/25 11:03:15;;;;;;;2.53;0.90;;;;;;;10.83;100.00;100167.16;6259516;28;20508;-73
2023/12/25 11:06:17;;;;;;;6.20;0.80;;;;;;;10.62;100.00;100166.72;6250509;28;20714;-72
2023/12/25 11:09:20;;;;;;;9.73;1.05;;;;;;;10.67;100.00;100169.06;6251029;28;20053;-71
2023/12/25 11:12:21;;;;;;;2.70;0.80;;;;;;;10.64;100.00;100174.53;6250852;28;20049;-70
2023/12/25 11:15:23;;;;;;;3.22;0.77;;;;;;;10.69;100.00;100164.56;6250641;28;20057;-71
2023/12/25 11:18:26;;;;;;;11.90;1.08;;;;;;;10.69;100.00;100161.94;6257084;28;20052;-70
2023/12/25 11:21:32;;;;;;;4.43;1.10;;;;;;;10.67;100.00;100153.28;6259131;28;20056;-72
2023/12/25 11:24:34;;;;;;;5.15;1.38;;;;;;;10.65;100.00;100158.66;6265286;28;20053;-72
2023/12/25 11:27:37;;;;;;;3.40;0.95;;;;;;;10.74;100.00;100173.00;6275500;28;20052;-71
2023/12/25 11:30:38;;;;;;;5.28;0.80;;;;;;;10.75;100.00;100166.78;6275514;28;20041;-70
2023/12/25 11:33:44;;;;;;;4.32;0.90;;;;;;;10.77;100.00;100169.34;6270329;28;20049;-71
2023/12/25 11:36:45;;;;;;;1.80;0.68;;;;;;;10.80;100.00;100167.34;6256850;28;20095;-72
2023/12/25 11:39:53;;;;;;;7.05;1.17;;;;;;;10.80;100.00;100148.09;6265035;28;20048;-72
2023/12/25 11:42:57;;;;;;;1.67;0.60;;;;;;;10.79;100.00;100165.66;6269423;28;20186;-72
2023/12/25 11:46:02;;;;;;;7.40;0.80;;;;;;;10.76;100.00;100160.59;6269388;28;20364;-71
2023/12/25 11:49:05;;;;;;;10.30;0.90;;;;;;;10.85;100.00;100172.31;6259340;28;20045;-70
2023/12/25 11:52:07;;;;;;;6.43;1.02;;;;;;;10.84;100.00;100179.34;6259662;28;20053;-71
2023/12/25 11:55:08;;;;;;;6.07;0.70;;;;;;;10.87;100.00;100200.19;6254295;28;20061;-71
2023/12/25 11:58:10;;;;;;;4.75;1.10;;;;;;;10.88;100.00;100199.25;6241710;28;20077;-72
2023/12/25 12:01:16;;;;;;;4.80;1.35;;;;;;;10.82;100.00;100202.28;6253084;28;20055;-72
2023/12/25 12:04:19;;;;;;;2.95;1.25;;;;;;;10.80;100.00;100203.28;6258577;28;20052;-73
2023/12/25 12:07:21;;;;;;;7.20;0.75;;;;;;;10.78;100.00;100190.25;6257081;28;20052;-75
2023/12/25 12:10:23;;;;;;;3.00;0.82;;;;;;;10.79;100.00;100209.50;6261862;28;20046;-71
2023/12/25 12:13:24;;;;;;;7.68;1.17;;;;;;;10.82;100.00;100201.44;6263188;28;20048;-71
2023/12/25 12:16:27;;;;;;;8.15;0.90;;;;;;;10.74;100.00;100188.75;6274337;28;20037;-70
2023/12/25 12:19:30;;;;;;;3.83;1.10;;;;;;;10.78;100.00;100202.56;6259466;28;20057;-72
2023/12/25 12:22:32;;;;;;;7.32;1.23;;;;;;;10.68;100.00;100186.53;6247228;28;21000;-72
2023/12/25 12:25:33;;;;;;;4.32;0.82;;;;;;;10.60;100.00;100209.81;6257031;28;20341;-74
2023/12/25 12:28:35;;;;;;;2.22;1.08;;;;;;;10.64;100.00;100200.81;6258782;28;20048;-71
2023/12/25 12:31:37;;;;;;;8.98;1.15;;;;;;;10.56;100.00;100193.38;6261790;28;20048;-72
2023/12/25 12:34:40;;;;;;;4.90;0.80;;;;;;;10.68;100.00;100199.66;6259906;28;20438;-71
2023/12/25 12:37:43;;;;;;;5.72;1.10;;;;;;;10.66;100.00;100202.38;6247472;28;20052;-72
2023/12/25 12:40:44;;;;;;;6.53;1.00;;;;;;;10.62;100.00;100200.88;6267127;28;20052;-71
2023/12/25 12:43:46;;;;;;;2.97;0.88;;;;;;;10.59;100.00;100195.00;6263593;28;20057;-71
2023/12/25 12:46:47;;;;;;;4.20;0.82;;;;;;;10.54;100.00;100192.66;6267533;28;20052;-71
2023/12/25 12:49:51;;;;;;;3.58;1.08;;;;;;;10.44;100.00;100207.25;6261580;28;20457;-71
2023/12/25 12:52:52;;;;;;;7.88;1.08;;;;;;;10.34;100.00;100214.88;6261043;28;20219;-71
2023/12/25 12:55:54;;;;;;;1.52;0.60;;;;;;;10.38;100.00;100187.47;6264959;28;20465;-70
2023/12/25 12:58:55;;;;;;;8.45;1.10;;;;;;;10.37;100.00;100183.16;6270319;28;20357;-70
2023/12/25 13:01:57;;;;;;;3.40;1.08;;;;;;;10.26;100.00;100188.22;6272046;28;20049;-72
2023/12/25 13:04:59;;;;;;;4.45;0.73;;;;;;;10.29;100.00;100200.34;6263125;28;20042;-72
2023/12/25 13:08:01;;;;;;;5.20;1.33;;;;;;;10.38;100.00;100184.00;6253903;28;20056;-79
2023/12/25 13:11:02;;;;;;;7.55;1.00;;;;;;;10.37;100.00;100177.06;6265012;28;20045;-72
2023/12/25 13:14:04;;;;;;;5.22;1.30;;;;;;;10.44;100.00;100177.53;6256506;28;20449;-71
2023/12/25 13:17:05;;;;;;;4.03;0.68;;;;;;;10.41;100.00;100175.97;6261167;28;20434;-73
2023/12/25 13:20:10;;;;;;;4.68;0.80;;;;;;;10.48;100.00;100186.91;6269720;28;20389;-71
2023/12/25 13:23:11;;;;;;;5.97;0.80;;;;;;;10.51;100.00;100178.84;6258025;28;20045;-71
2023/12/25 13:26:12;;;;;;;7.70;1.80;;;;;;;10.40;100.00;100187.38;6261746;28;20045;-71
2023/12/25 13:29:14;;;;;;;5.28;0.82;;;;;;;10.34;100.00;100172.00;6262159;28;20356;-71
2023/12/25 13:32:17;;;;;;;7.72;0.68;;;;;;;10.36;100.00;100188.53;6265438;28;20048;-71
2023/12/25 13:35:19;;;;;;;1.77;0.73;;;;;;;10.47;100.00;100188.69;6264174;28;20071;-70
2023/12/25 13:38:21;;;;;;;4.32;0.73;;;;;;;10.47;100.00;100191.31;6244981;28;20054;-72
2023/12/25 13:41:22;;;;;;;1.80;0.93;;;;;;;10.43;100.00;100189.81;6249808;28;20080;-71
2023/12/25 13:44:25;;;;;;;3.47;0.90;;;;;;;10.50;100.00;100199.03;6253295;28;20425;-71
2023/12/25 13:47:27;;;;;;;8.48;1.85;;;;;;;10.40;100.00;100190.00;6256906;28;20072;-71
2023/12/25 13:50:30;;;;;;;6.25;1.10;;;;;;;10.44;100.00;100193.28;6266938;28;20053;-72
2023/12/25 13:53:31;;;;;;;7.28;0.90;;;;;;;10.41;100.00;100197.81;6262398;28;20049;-71
2023/12/25 13:56:33;;;;;;;2.45;0.75;;;;;;;10.43;100.00;100191.59;6261436;28;20061;-71
2023/12/25 13:59:34;;;;;;;3.10;0.95;;;;;;;10.49;100.00;100199.09;6276158;28;20048;-72
2023/12/25 14:02:36;;;;;;;1.15;0.65;;;;;;;10.49;100.00;100205.22;6259549;28;20060;-71